createdAt,value
2018-09-09T00:01:49.570Z,31.17
2018-09-09T00:04:20.121Z,31.22
2018-09-09T00:06:50.760Z,31.23
2018-09-09T00:09:26.348Z,31.33
2018-09-09T00:11:57.484Z,31.46
2018-09-09T00:14:28.089Z,31.02
2018-09-09T00:16:58.952Z,31.40
2018-09-09T00:19:29.621Z,31.40
2018-09-09T00:22:00.377Z,31.77
2018-09-09T00:24:31.082Z,31.31
2018-09-09T00:27:02.300Z,32.12
2018-09-09T00:29:33.017Z,32.13
2018-09-09T00:32:03.709Z,32.49
2018-09-09T00:34:34.272Z,32.14
2018-09-09T00:37:05.124Z,32.25
2018-09-09T00:39:35.787Z,32.27
2018-09-09T00:42:06.464Z,32.79
2018-09-09T00:44:37.161Z,32.58
2018-09-09T00:47:07.837Z,31.70
2018-09-09T00:49:43.541Z,31.72
2018-09-09T00:52:19.302Z,31.72
2018-09-09T00:54:49.773Z,32.25
2018-09-09T00:57:20.544Z,31.31
2018-09-09T00:59:51.188Z,32.04
2018-09-09T01:02:21.992Z,31.72
2018-09-09T01:04:52.591Z,31.87
2018-09-09T01:07:23.261Z,31.85
2018-09-09T01:09:53.848Z,31.18
2018-09-09T01:12:24.609Z,31.43
2018-09-09T01:14:56.021Z,31.97
2018-09-09T01:17:26.864Z,31.50
2018-09-09T01:19:57.441Z,31.27
2018-09-09T01:22:28.246Z,31.73
2018-09-09T01:24:58.933Z,32.06
2018-09-09T01:27:29.781Z,31.83
2018-09-09T01:30:00.317Z,31.31
2018-09-09T01:32:31.142Z,31.15
2018-09-09T01:35:11.330Z,30.99
2018-09-09T01:37:43.784Z,31.31
2018-09-09T01:40:14.652Z,31.54
2018-09-09T01:42:45.293Z,31.59
2018-09-09T01:45:15.964Z,31.42
2018-09-09T01:47:46.815Z,30.48
2018-09-09T01:50:17.586Z,31.30
2018-09-09T01:52:48.485Z,31.14
2018-09-09T01:55:19.149Z,31.42
2018-09-09T01:57:49.950Z,31.01
2018-09-09T02:00:20.665Z,30.90
2018-09-09T02:02:51.721Z,30.68
2018-09-09T02:05:22.336Z,31.06
2018-09-09T02:07:53.066Z,31.36
2018-09-09T02:10:23.697Z,31.72
2018-09-09T02:12:54.495Z,31.87
2018-09-09T02:15:25.205Z,32.02
2018-09-09T02:17:55.949Z,31.93
2018-09-09T02:20:26.584Z,31.86
2018-09-09T02:22:57.586Z,31.82
2018-09-09T02:25:28.197Z,31.65
2018-09-09T02:27:59.094Z,31.62
2018-09-09T02:30:29.836Z,31.86
2018-09-09T02:33:00.661Z,31.54
2018-09-09T02:35:31.243Z,31.75
2018-09-09T02:38:01.989Z,31.61
2018-09-09T02:40:32.628Z,31.73
2018-09-09T02:43:03.646Z,31.45
2018-09-09T02:45:34.277Z,31.55
2018-09-09T02:48:05.092Z,31.65
2018-09-09T02:50:35.974Z,31.50
2018-09-09T02:53:07.170Z,31.29
2018-09-09T02:55:41.722Z,31.01
2018-09-09T02:58:12.609Z,30.86
2018-09-09T03:00:43.125Z,31.57
2018-09-09T03:03:13.979Z,32.21
2018-09-09T03:05:44.537Z,31.95
2018-09-09T03:08:15.220Z,31.61
2018-09-09T03:10:45.928Z,31.42
2018-09-09T03:13:16.744Z,31.61
2018-09-09T03:15:47.499Z,31.18
2018-09-09T03:18:18.244Z,31.49
2018-09-09T03:20:48.860Z,31.42
2018-09-09T03:23:19.649Z,31.47
2018-09-09T03:25:50.129Z,31.43
2018-09-09T03:28:21.086Z,31.02
2018-09-09T03:30:51.686Z,31.36
2018-09-09T03:33:22.301Z,31.47
2018-09-09T03:35:53.073Z,31.78
2018-09-09T03:38:24.284Z,31.91
2018-09-09T03:40:54.881Z,31.30
2018-09-09T03:43:25.677Z,31.32
2018-09-09T03:45:56.318Z,31.53
2018-09-09T03:48:27.190Z,31.49
2018-09-09T03:50:57.887Z,31.01
2018-09-09T03:53:28.968Z,31.82
2018-09-09T03:55:59.628Z,31.75
2018-09-09T03:58:30.173Z,32.14
2018-09-09T04:01:00.588Z,31.95
2018-09-09T04:03:31.452Z,31.67
2018-09-09T04:06:02.032Z,31.88
2018-09-09T04:08:32.958Z,32.18
2018-09-09T04:11:07.433Z,32.18
2018-09-09T04:13:38.837Z,31.48
2018-09-09T04:16:10.713Z,31.38
2018-09-09T04:18:42.592Z,31.62
2018-09-09T04:21:13.138Z,32.04
2018-09-09T04:23:43.993Z,32.11
2018-09-09T04:26:14.568Z,32.79
2018-09-09T04:28:45.373Z,32.66
2018-09-09T04:31:15.949Z,32.09
2018-09-09T04:33:46.740Z,32.12
2018-09-09T04:36:17.295Z,32.96
2018-09-09T04:38:47.777Z,32.73
2018-09-09T04:41:18.380Z,32.73
2018-09-09T04:43:49.362Z,33.08
2018-09-09T04:46:20.001Z,33.72
2018-09-09T04:48:50.869Z,32.98
2018-09-09T04:51:21.573Z,32.71
2018-09-09T04:53:52.432Z,33.24
2018-09-09T04:56:23.049Z,31.96
2018-09-09T04:58:54.045Z,32.68
2018-09-09T05:01:24.640Z,33.94
2018-09-09T05:03:55.305Z,32.66
2018-09-09T05:06:25.836Z,33.00
2018-09-09T05:08:56.845Z,32.54
2018-09-09T05:11:27.492Z,33.23
2018-09-09T05:13:58.388Z,32.96
2018-09-09T05:16:29.001Z,33.44
2018-09-09T05:18:59.729Z,33.37
2018-09-09T05:21:30.285Z,33.89
2018-09-09T05:24:01.009Z,33.84
2018-09-09T05:26:31.580Z,35.51
2018-09-09T05:29:02.498Z,35.82
2018-09-09T05:31:33.156Z,35.82
2018-09-09T05:34:06.387Z,35.28
2018-09-09T05:36:37.405Z,34.56
2018-09-09T05:39:13.453Z,34.31
2018-09-09T05:41:44.255Z,34.83
2018-09-09T05:44:17.592Z,34.80
2018-09-09T05:46:51.817Z,35.14
2018-09-09T05:49:22.829Z,34.68
2018-09-09T05:51:53.985Z,34.92
2018-09-09T05:54:24.477Z,35.61
2018-09-09T05:56:55.039Z,36.07
2018-09-09T05:59:25.836Z,36.24
2018-09-09T06:01:56.778Z,36.00
2018-09-09T06:04:27.842Z,37.85
2018-09-09T06:06:58.549Z,37.51
2018-09-09T06:09:29.613Z,36.74
2018-09-09T06:12:14.496Z,37.37
2018-09-09T06:14:45.257Z,37.46
2018-09-09T06:17:15.945Z,36.68
2018-09-09T06:19:46.758Z,35.61
2018-09-09T06:22:17.411Z,36.34
2018-09-09T06:24:48.172Z,36.49
2018-09-09T06:27:18.733Z,37.04
2018-09-09T06:29:49.569Z,37.42
2018-09-09T06:32:20.168Z,37.62
2018-09-09T06:34:51.139Z,36.87
2018-09-09T06:37:21.852Z,37.39
2018-09-09T06:39:52.919Z,38.33
2018-09-09T06:42:23.581Z,38.72
2018-09-09T06:44:54.523Z,38.05
2018-09-09T06:47:25.185Z,38.15
2018-09-09T06:49:56.285Z,38.73
2018-09-09T06:52:26.920Z,38.92
2018-09-09T06:54:57.650Z,38.49
2018-09-09T06:57:28.377Z,38.82
2018-09-09T06:59:59.381Z,37.60
2018-09-09T07:02:30.002Z,38.31
2018-09-09T07:05:00.720Z,38.79
2018-09-09T07:07:31.359Z,38.48
2018-09-09T07:10:02.330Z,38.72
2018-09-09T07:12:37.251Z,38.00
2018-09-09T07:15:07.910Z,37.84
2018-09-09T07:17:38.501Z,39.49
2018-09-09T07:20:09.280Z,38.75
2018-09-09T07:22:39.976Z,39.59
2018-09-09T07:25:10.881Z,39.13
2018-09-09T07:27:41.498Z,40.83
2018-09-09T07:30:12.477Z,40.26
2018-09-09T07:32:43.024Z,41.40
2018-09-09T07:35:14.708Z,41.02
2018-09-09T07:37:45.397Z,39.92
2018-09-09T07:40:16.305Z,39.89
2018-09-09T07:42:47.009Z,39.57
2018-09-09T07:45:17.777Z,41.23
2018-09-09T07:47:48.588Z,40.65
2018-09-09T07:50:19.453Z,40.65
2018-09-09T07:52:50.097Z,40.22
2018-09-09T07:55:20.923Z,40.99
2018-09-09T07:57:51.650Z,40.69
2018-09-09T08:00:22.637Z,41.55
2018-09-09T08:02:53.228Z,42.18
2018-09-09T08:05:24.093Z,41.03
2018-09-09T08:07:54.729Z,41.12
2018-09-09T08:10:25.541Z,41.25
2018-09-09T08:12:56.274Z,40.09
2018-09-09T08:15:26.820Z,41.39
2018-09-09T08:17:57.501Z,41.90
2018-09-09T08:20:28.227Z,42.39
2018-09-09T08:22:58.629Z,43.80
2018-09-09T08:25:29.283Z,42.75
2018-09-09T08:27:59.911Z,43.71
2018-09-09T08:30:30.464Z,42.15
2018-09-09T08:33:01.077Z,42.87
2018-09-09T08:35:31.865Z,42.47
2018-09-09T08:38:02.542Z,41.64
2018-09-09T08:40:33.209Z,41.37
2018-09-09T08:43:04.375Z,41.18
2018-09-09T08:45:35.117Z,42.78
2018-09-09T08:48:05.901Z,43.19
2018-09-09T08:50:36.821Z,43.77
2018-09-09T08:53:07.325Z,42.31
2018-09-09T08:55:38.361Z,42.32
2018-09-09T08:58:08.949Z,43.70
2018-09-09T09:00:39.755Z,42.26
2018-09-09T09:03:10.317Z,42.60
2018-09-09T09:05:41.082Z,42.80
2018-09-09T09:08:11.815Z,42.97
2018-09-09T09:10:42.608Z,42.63
2018-09-09T09:13:13.791Z,43.74
2018-09-09T09:15:44.869Z,46.02
2018-09-09T09:18:15.814Z,43.72
2018-09-09T09:20:46.730Z,44.25
2018-09-09T09:23:17.543Z,46.02
2018-09-09T09:25:52.780Z,46.68
2018-09-09T09:28:24.124Z,45.43
2018-09-09T09:30:55.158Z,46.73
2018-09-09T09:33:25.913Z,45.30
2018-09-09T09:35:56.572Z,43.58
2018-09-09T09:38:27.325Z,42.90
2018-09-09T09:40:58.369Z,43.50
2018-09-09T09:43:28.941Z,45.54
2018-09-09T09:45:59.837Z,46.44
2018-09-09T09:48:30.577Z,46.16
2018-09-09T09:51:01.081Z,45.77
2018-09-09T09:53:31.715Z,43.78
2018-09-09T09:56:02.528Z,45.19
2018-09-09T09:58:35.033Z,42.83
2018-09-09T10:01:05.893Z,43.93
2018-09-09T10:03:36.533Z,44.89
2018-09-09T10:06:07.331Z,45.17
2018-09-09T10:08:37.581Z,44.32
2018-09-09T10:11:08.749Z,47.24
2018-09-09T10:13:39.453Z,44.77
2018-09-09T10:16:10.249Z,46.65
2018-09-09T10:18:41.204Z,45.66
2018-09-09T10:21:11.864Z,46.78
2018-09-09T10:23:42.703Z,46.69
2018-09-09T10:26:13.623Z,46.88
2018-09-09T10:28:44.406Z,45.43
2018-09-09T10:31:15.145Z,46.00
2018-09-09T10:33:45.824Z,45.96
2018-09-09T10:36:16.596Z,46.25
2018-09-09T10:38:47.232Z,47.48
2018-09-09T10:41:18.129Z,46.74
2018-09-09T10:43:48.693Z,45.91
2018-09-09T10:46:19.645Z,47.30
2018-09-09T10:48:50.302Z,46.69
2018-09-09T10:51:21.033Z,45.04
2018-09-09T10:53:51.633Z,45.49
2018-09-09T10:56:22.689Z,46.42
2018-09-09T10:58:53.349Z,47.23
2018-09-09T11:01:24.161Z,47.03
2018-09-09T11:03:54.706Z,44.55
2018-09-09T11:06:25.549Z,46.02
2018-09-09T11:08:56.069Z,47.46
2018-09-09T11:11:27.014Z,45.91
2018-09-09T11:13:57.497Z,44.74
2018-09-09T11:16:28.408Z,45.53
2018-09-09T11:18:59.440Z,46.04
2018-09-09T11:21:30.413Z,45.16
2018-09-09T11:24:01.044Z,45.78
2018-09-09T11:26:31.838Z,47.01
2018-09-09T11:29:02.490Z,47.40
2018-09-09T11:31:33.344Z,47.80
2018-09-09T11:34:03.957Z,45.52
2018-09-09T11:36:34.721Z,45.60
2018-09-09T11:39:06.841Z,45.24
2018-09-09T11:41:37.678Z,45.84
2018-09-09T11:44:08.470Z,44.91
2018-09-09T11:46:39.249Z,45.64
2018-09-09T11:49:09.881Z,44.49
2018-09-09T11:51:40.657Z,43.44
2018-09-09T11:54:11.330Z,43.80
2018-09-09T11:56:42.132Z,45.63
2018-09-09T11:59:12.849Z,44.92
2018-09-09T12:01:43.977Z,45.61
2018-09-09T12:04:14.690Z,46.33
2018-09-09T12:06:45.613Z,48.13
2018-09-09T12:09:16.265Z,47.13
2018-09-09T12:11:47.422Z,47.00
2018-09-09T12:14:18.009Z,45.50
2018-09-09T12:16:48.765Z,45.33
2018-09-09T12:19:19.391Z,45.25
2018-09-09T12:21:50.385Z,46.13
2018-09-09T12:24:21.126Z,45.47
2018-09-09T12:26:51.973Z,44.81
2018-09-09T12:29:22.553Z,46.21
2018-09-09T12:31:53.538Z,44.77
2018-09-09T12:34:24.150Z,45.77
2018-09-09T12:36:54.732Z,44.88
2018-09-09T12:39:25.445Z,47.00
2018-09-09T12:41:56.282Z,46.50
2018-09-09T12:44:32.060Z,44.44
2018-09-09T12:47:07.791Z,46.51
2018-09-09T12:49:38.465Z,45.31
2018-09-09T12:52:09.169Z,46.19
2018-09-09T12:54:39.806Z,43.89
2018-09-09T12:57:10.590Z,45.19
2018-09-09T12:59:41.390Z,47.26
2018-09-09T13:02:12.173Z,44.90
2018-09-09T13:04:42.788Z,44.78
2018-09-09T13:07:13.628Z,43.75
2018-09-09T13:09:44.313Z,44.60
2018-09-09T13:12:15.096Z,44.41
2018-09-09T13:14:45.709Z,46.77
2018-09-09T13:17:16.445Z,47.92
2018-09-09T13:19:47.138Z,48.20
2018-09-09T13:22:17.929Z,49.02
2018-09-09T13:24:48.544Z,48.79
2018-09-09T13:27:19.228Z,47.83
2018-09-09T13:29:49.862Z,47.62
2018-09-09T13:32:20.822Z,46.36
2018-09-09T13:34:51.637Z,45.85
2018-09-09T13:37:22.387Z,45.60
2018-09-09T13:39:52.949Z,44.72
2018-09-09T13:42:23.797Z,44.49
2018-09-09T13:44:54.432Z,45.41
2018-09-09T13:47:25.293Z,45.24
2018-09-09T13:49:55.957Z,43.17
2018-09-09T13:52:26.676Z,43.57
2018-09-09T13:54:57.053Z,43.21
2018-09-09T13:57:27.713Z,42.57
2018-09-09T13:59:58.305Z,43.57
2018-09-09T14:02:29.239Z,42.31
2018-09-09T14:04:59.889Z,42.64
2018-09-09T14:07:30.745Z,42.71
2018-09-09T14:10:01.361Z,43.72
2018-09-09T14:12:32.360Z,43.47
2018-09-09T14:15:03.327Z,43.68
2018-09-09T14:17:34.120Z,42.69
2018-09-09T14:20:04.889Z,42.94
2018-09-09T14:22:35.578Z,43.31
2018-09-09T14:25:06.321Z,43.55
2018-09-09T14:27:37.364Z,43.46
2018-09-09T14:30:08.026Z,43.49
2018-09-09T14:32:38.792Z,44.11
2018-09-09T14:35:09.449Z,44.35
2018-09-09T14:37:40.313Z,45.06
2018-09-09T14:40:11.065Z,44.79
2018-09-09T14:42:41.809Z,44.17
2018-09-09T14:45:12.386Z,44.18
2018-09-09T14:47:43.176Z,46.06
2018-09-09T14:50:13.910Z,46.30
2018-09-09T14:52:44.981Z,45.01
2018-09-09T14:55:15.785Z,44.31
2018-09-09T14:57:46.627Z,43.28
2018-09-09T15:00:17.369Z,43.65
2018-09-09T15:02:48.365Z,44.52
2018-09-09T15:05:18.917Z,43.55
2018-09-09T15:07:49.717Z,44.12
2018-09-09T15:10:20.411Z,45.46
2018-09-09T15:12:51.521Z,45.21
2018-09-09T15:15:22.129Z,44.71
2018-09-09T15:17:53.113Z,44.01
2018-09-09T15:20:23.754Z,42.90
2018-09-09T15:22:54.481Z,43.53
2018-09-09T15:25:25.122Z,43.28
2018-09-09T15:27:55.724Z,43.72
2018-09-09T15:30:26.489Z,43.78
2018-09-09T15:32:57.204Z,43.75
2018-09-09T15:35:27.845Z,43.89
2018-09-09T15:37:58.695Z,44.11
2018-09-09T15:40:29.261Z,43.32
2018-09-09T15:43:00.253Z,42.96
2018-09-09T15:45:30.891Z,42.27
2018-09-09T15:48:02.481Z,43.14
2018-09-09T15:50:33.265Z,42.06
2018-09-09T15:53:03.884Z,42.14
2018-09-09T15:55:34.441Z,41.92
2018-09-09T15:58:05.301Z,41.37
2018-09-09T16:00:36.073Z,42.69
2018-09-09T16:03:06.872Z,41.90
2018-09-09T16:05:37.517Z,41.58
2018-09-09T16:08:08.180Z,41.59
2018-09-09T16:10:38.848Z,41.38
2018-09-09T16:13:09.674Z,41.97
2018-09-09T16:15:40.338Z,41.90
2018-09-09T16:18:11.323Z,41.67
2018-09-09T16:20:41.966Z,41.17
2018-09-09T16:23:12.818Z,40.94
2018-09-09T16:25:43.439Z,41.68
2018-09-09T16:28:14.072Z,41.83
2018-09-09T16:30:44.672Z,41.28
2018-09-09T16:33:15.352Z,40.61
2018-09-09T16:35:46.032Z,40.46
2018-09-09T16:38:16.849Z,40.87
2018-09-09T16:40:47.546Z,40.11
2018-09-09T16:43:18.230Z,40.35
2018-09-09T16:45:48.844Z,40.54
2018-09-09T16:48:19.773Z,40.53
2018-09-09T16:50:50.484Z,40.53
2018-09-09T16:53:21.520Z,40.57
2018-09-09T16:55:52.189Z,40.46
2018-09-09T16:58:22.949Z,40.69
2018-09-09T17:00:53.600Z,40.19
2018-09-09T17:03:24.362Z,40.43
2018-09-09T17:05:54.908Z,39.73
2018-09-09T17:08:25.701Z,39.88
2018-09-09T17:10:56.115Z,40.21
2018-09-09T17:13:26.990Z,39.63
2018-09-09T17:15:57.741Z,39.49
2018-09-09T17:18:28.421Z,39.34
2018-09-09T17:20:59.057Z,38.43
2018-09-09T17:23:30.021Z,38.53
2018-09-09T17:26:00.716Z,38.61
2018-09-09T17:28:31.836Z,38.55
2018-09-09T17:31:02.652Z,38.58
2018-09-09T17:33:33.915Z,38.34
2018-09-09T17:36:04.913Z,37.85
2018-09-09T17:38:35.872Z,38.11
2018-09-09T17:41:06.890Z,37.83
2018-09-09T17:43:38.037Z,37.95
2018-09-09T17:46:08.883Z,38.40
2018-09-09T17:48:40.292Z,38.52
2018-09-09T17:51:11.220Z,37.26
2018-09-09T17:53:42.383Z,37.77
2018-09-09T17:56:13.269Z,37.57
2018-09-09T17:58:44.253Z,37.08
2018-09-09T18:01:15.151Z,37.69
2018-09-09T18:03:46.086Z,38.21
2018-09-09T18:06:16.982Z,37.17
2018-09-09T18:08:48.188Z,37.37
2018-09-09T18:11:19.079Z,36.76
2018-09-09T18:13:50.435Z,37.18
2018-09-09T18:16:21.602Z,36.82
2018-09-09T18:18:52.803Z,37.51
2018-09-09T18:21:23.761Z,37.04
2018-09-09T18:23:54.848Z,37.29
2018-09-09T18:26:25.770Z,36.80
2018-09-09T18:28:56.615Z,37.42
2018-09-09T18:31:27.207Z,36.54
2018-09-09T18:33:58.295Z,36.88
2018-09-09T18:36:29.222Z,36.83
2018-09-09T18:39:00.496Z,36.10
2018-09-09T18:41:31.565Z,36.34
2018-09-09T18:44:02.621Z,36.85
2018-09-09T18:46:33.491Z,35.68
2018-09-09T18:49:04.562Z,36.76
2018-09-09T18:51:39.662Z,36.07
2018-09-09T18:54:12.761Z,36.12
2018-09-09T18:56:45.104Z,36.09
2018-09-09T18:59:45.489Z,36.12
2018-09-09T19:02:17.525Z,36.17
2018-09-09T19:04:49.329Z,35.92
2018-09-09T19:07:21.575Z,35.80
2018-09-09T19:09:52.816Z,36.16
2018-09-09T19:12:23.709Z,35.63
2018-09-09T19:14:54.815Z,36.33
2018-09-09T19:17:25.748Z,36.11
2018-09-09T19:19:56.855Z,36.02
2018-09-09T19:22:28.564Z,35.75
2018-09-09T19:25:00.348Z,36.99
2018-09-09T19:27:31.230Z,36.27
2018-09-09T19:30:05.040Z,35.99
2018-09-09T19:32:35.908Z,36.36
2018-09-09T19:35:07.139Z,36.24
2018-09-09T19:37:38.098Z,35.24
2018-09-09T19:40:08.990Z,35.68
2018-09-09T19:42:40.267Z,35.86
2018-09-09T19:45:11.460Z,35.60
2018-09-09T19:47:42.491Z,35.20
2018-09-09T19:50:13.656Z,35.64
2018-09-09T19:52:44.562Z,35.50
2018-09-09T19:55:15.456Z,35.56
2018-09-09T19:57:46.369Z,35.87
2018-09-09T20:00:18.227Z,36.35
2018-09-09T20:02:49.083Z,34.72
2018-09-09T20:05:20.420Z,34.79
2018-09-09T20:07:51.385Z,34.67
2018-09-09T20:10:22.264Z,34.65
2018-09-09T20:12:53.079Z,35.20
2018-09-09T20:15:24.152Z,34.47
2018-09-09T20:17:54.947Z,35.38
2018-09-09T20:20:26.051Z,34.91
2018-09-09T20:22:57.152Z,34.30
2018-09-09T20:25:28.219Z,34.63
2018-09-09T20:27:58.745Z,35.51
2018-09-09T20:30:29.516Z,34.83
2018-09-09T20:33:00.149Z,34.69
2018-09-09T20:35:30.981Z,34.60
2018-09-09T20:38:01.637Z,34.21
2018-09-09T20:40:32.441Z,33.96
2018-09-09T20:43:02.789Z,34.39
2018-09-09T20:45:33.416Z,34.09
2018-09-09T20:48:03.889Z,34.07
2018-09-09T20:50:34.635Z,34.67
2018-09-09T20:53:05.253Z,34.06
2018-09-09T20:55:36.152Z,33.87
2018-09-09T20:58:06.897Z,33.72
2018-09-09T21:00:37.735Z,34.18
2018-09-09T21:03:08.334Z,34.34
2018-09-09T21:05:38.950Z,34.25
2018-09-09T21:08:09.556Z,33.61
2018-09-09T21:10:40.184Z,34.13
2018-09-09T21:13:10.768Z,34.05
2018-09-09T21:15:41.800Z,33.35
2018-09-09T21:18:12.359Z,33.77
2018-09-09T21:20:43.321Z,33.90
2018-09-09T21:23:14.008Z,34.20
2018-09-09T21:25:44.717Z,34.04
2018-09-09T21:28:15.179Z,33.65
2018-09-09T21:30:51.140Z,34.32
2018-09-09T21:33:21.823Z,33.74
2018-09-09T21:35:53.003Z,34.41
2018-09-09T21:38:23.568Z,33.67
2018-09-09T21:40:54.178Z,33.71
2018-09-09T21:43:24.831Z,32.70
2018-09-09T21:45:55.693Z,33.09
2018-09-09T21:48:26.274Z,33.69
2018-09-09T21:50:56.915Z,34.14
2018-09-09T21:53:27.534Z,33.51
2018-09-09T21:55:58.206Z,33.28
2018-09-09T21:58:28.800Z,33.00
2018-09-09T22:01:04.621Z,33.39
2018-09-09T22:03:35.114Z,34.08
2018-09-09T22:06:05.780Z,34.04
2018-09-09T22:08:36.356Z,33.30
2018-09-09T22:11:08.197Z,33.60
2018-09-09T22:13:38.929Z,32.74
2018-09-09T22:16:09.384Z,33.36
2018-09-09T22:18:39.895Z,33.11
2018-09-09T22:21:10.612Z,33.42
2018-09-09T22:23:41.270Z,33.10
2018-09-09T22:26:11.937Z,33.80
2018-09-09T22:28:42.529Z,32.97
2018-09-09T22:31:13.263Z,33.55
2018-09-09T22:33:43.892Z,33.53
2018-09-09T22:36:14.660Z,33.21
2018-09-09T22:38:45.337Z,33.28
2018-09-09T22:41:16.137Z,33.92
2018-09-09T22:43:46.639Z,33.59
2018-09-09T22:46:17.186Z,33.19
2018-09-09T22:48:47.680Z,33.79
2018-09-09T22:51:18.376Z,33.41
2018-09-09T22:53:48.913Z,33.63
2018-09-09T22:56:19.522Z,33.62
2018-09-09T22:58:50.037Z,33.51
2018-09-09T23:01:21.011Z,33.52
2018-09-09T23:03:51.704Z,34.19
2018-09-09T23:06:22.423Z,34.61
2018-09-09T23:08:53.013Z,33.64
2018-09-09T23:11:23.702Z,33.32
2018-09-09T23:13:54.218Z,33.29
2018-09-09T23:16:24.889Z,32.79
2018-09-09T23:18:55.359Z,33.53
2018-09-09T23:21:26.025Z,33.53
2018-09-09T23:23:56.910Z,33.95
2018-09-09T23:26:27.784Z,34.07
2018-09-09T23:28:58.273Z,34.07
2018-09-09T23:31:29.028Z,33.23
2018-09-09T23:33:59.651Z,33.85
2018-09-09T23:36:30.377Z,34.50
2018-09-09T23:39:01.064Z,34.85
2018-09-09T23:41:31.768Z,34.62
2018-09-09T23:44:02.460Z,33.63
2018-09-09T23:46:33.272Z,32.67
2018-09-09T23:49:03.955Z,33.84
2018-09-09T23:51:34.801Z,32.27
2018-09-09T23:54:05.496Z,33.24
2018-09-09T23:56:36.089Z,33.72
2018-09-09T23:59:06.798Z,33.13
